Aviation Digital Data Service (ADDS)

Output produced by METARs form (1103 UTC 30 April 2017)
found at http://www.aviationweather.gov/adds/metars/
 
SMJP 301100Z 10002KT 9999 VCSH FEW008 SCT015TCU 25/24 Q1014 NOSIG
TAF SMJP 301000Z 3012/0112 05008KT 9999 SCT012 SCT020 TX29/3017Z TN23/0110Z 
     TEMPO 3013/3017 VRB12G22KT 5000 SHRA FEW015CB SCT020 
     FM301700 06008KT 9999 FEW015CB BKN018 
     TEMPO 3017/3020 VRB12G22KT 2000 +TSRA SCT010CB BKN018 
     BECMG 3022/0100 04005KT SCT020 
     PROB30 
     TEMPO 0107/0110 4000 SHRA FEW015TCU SCT018